Time;durP1;ratioP1;P1;durP2;ratioP2;P2;SDS_P1;SDS_P2;PMS_P1;PMS_P2;Temp;Humidity;BMP_temperature;BMP_pressure;BME280_temperature;BME280_humidity;BME280_pressure;Samples;Min_cycle;Max_cycle;Signal;HPM_P1;HPM_P2
2023/11/25 00:01:07;;;;;;;1.77;0.60;;;20.30;36.20;;;;;;5034692;28;20041;-54
2023/11/25 00:03:33;;;;;;;2.28;0.60;;;20.30;36.20;;;;;;5035506;28;20029;-60
2023/11/25 00:05:58;;;;;;;2.47;0.70;;;20.20;36.20;;;;;;5039741;28;20025;-53
2023/11/25 00:08:26;;;;;;;1.75;0.55;;;20.20;36.20;;;;;;5030011;28;20448;-55
2023/11/25 00:10:52;;;;;;;1.67;0.45;;;20.30;36.20;;;;;;5015389;28;20449;-51
2023/11/25 00:13:20;;;;;;;2.00;0.60;;;20.20;36.20;;;;;;5036023;28;20040;-56
2023/11/25 00:15:46;;;;;;;2.95;0.82;;;20.20;36.20;;;;;;5029124;28;20046;-57
2023/11/25 00:18:12;;;;;;;2.05;0.60;;;20.20;36.20;;;;;;5028677;28;20048;-56
2023/11/25 00:20:38;;;;;;;1.55;0.60;;;20.20;36.20;;;;;;5038522;28;20368;-54
2023/11/25 00:23:04;;;;;;;1.95;0.70;;;20.20;36.20;;;;;;5015669;28;20033;-53
2023/11/25 00:25:30;;;;;;;2.03;0.70;;;20.20;36.20;;;;;;5031825;28;20029;-51
2023/11/25 00:27:56;;;;;;;2.17;0.75;;;20.20;36.30;;;;;;5038864;28;20025;-54
2023/11/25 00:30:23;;;;;;;2.55;0.70;;;20.20;36.30;;;;;;5028390;28;20079;-58
2023/11/25 00:32:51;;;;;;;1.50;0.60;;;20.20;36.30;;;;;;5033906;28;20043;-55
2023/11/25 00:35:17;;;;;;;1.73;0.60;;;20.20;36.30;;;;;;5012488;28;20430;-57
2023/11/25 00:37:43;;;;;;;1.45;0.57;;;20.20;36.30;;;;;;5028632;28;20053;-59
2023/11/25 00:40:10;;;;;;;2.45;0.82;;;20.10;36.20;;;;;;5031908;28;20043;-57
2023/11/25 00:42:41;;;;;;;3.00;0.82;;;20.20;36.20;;;;;;5031968;28;20035;-53
2023/11/25 00:45:11;;;;;;;1.95;0.55;;;20.20;36.20;;;;;;5035532;28;20078;-50
2023/11/25 00:47:41;;;;;;;2.45;0.77;;;20.10;36.20;;;;;;5051665;28;20076;-56
2023/11/25 00:50:08;;;;;;;1.55;0.70;;;20.10;36.20;;;;;;5041072;28;20086;-52
2023/11/25 00:52:34;;;;;;;1.90;0.60;;;20.20;36.20;;;;;;5028323;28;20847;-53
2023/11/25 00:55:00;;;;;;;1.75;0.70;;;20.10;36.20;;;;;;5039370;28;20124;-58
2023/11/25 00:57:26;;;;;;;1.75;0.80;;;20.10;36.20;;;;;;5036703;28;20048;-51
2023/11/25 00:59:53;;;;;;;1.70;0.60;;;20.10;36.20;;;;;;5056248;28;20068;-53
2023/11/25 01:02:19;;;;;;;2.67;0.80;;;20.10;36.20;;;;;;5039444;28;20311;-52
2023/11/25 01:04:45;;;;;;;2.35;0.77;;;20.10;36.10;;;;;;5053557;28;20025;-50
2023/11/25 01:07:11;;;;;;;3.58;0.90;;;20.10;36.10;;;;;;5031506;28;20090;-57
2023/11/25 01:09:37;;;;;;;1.90;0.68;;;20.10;36.10;;;;;;5044013;28;20071;-57
2023/11/25 01:12:03;;;;;;;2.53;0.80;;;20.10;36.10;;;;;;5029465;28;20056;-53
2023/11/25 01:14:31;;;;;;;2.35;0.80;;;20.10;36.80;;;;;;5038387;28;20021;-55
2023/11/25 01:16:57;;;;;;;2.08;0.70;;;20.10;36.10;;;;;;5052655;28;20112;-52
2023/11/25 01:19:23;;;;;;;3.58;0.98;;;20.10;36.10;;;;;;5034000;28;20116;-55
2023/11/25 01:21:49;;;;;;;1.90;0.80;;;20.10;36.10;;;;;;5042840;28;20029;-56
2023/11/25 01:24:14;;;;;;;2.97;0.63;;;20.10;36.10;;;;;;5060054;28;20033;-50
2023/11/25 01:26:40;;;;;;;2.97;0.90;;;20.10;36.20;;;;;;5055964;28;20533;-53
2023/11/25 01:29:06;;;;;;;2.03;0.63;;;20.10;36.20;;;;;;5043352;28;20016;-53
2023/11/25 01:31:33;;;;;;;2.80;0.90;;;20.10;36.20;;;;;;5058926;28;20029;-53
2023/11/25 01:33:59;;;;;;;2.60;0.90;;;20.10;36.20;;;;;;5050964;28;20033;-58
2023/11/25 01:36:26;;;;;;;1.48;0.60;;;20.00;36.20;;;;;;5051036;28;20083;-57
2023/11/25 01:38:52;;;;;;;2.33;0.70;;;20.10;36.20;;;;;;5037596;28;20044;-57
2023/11/25 01:41:18;;;;;;;3.08;0.90;;;20.00;36.20;;;;;;5035504;28;20116;-55
2023/11/25 01:43:44;;;;;;;2.63;0.82;;;20.00;36.20;;;;;;5014581;28;20052;-59
2023/11/25 01:46:11;;;;;;;3.67;0.95;;;20.00;36.20;;;;;;5013790;28;20448;-56
2023/11/25 01:48:38;;;;;;;2.42;0.80;;;20.00;36.20;;;;;;5015040;28;20029;-60
2023/11/25 01:51:05;;;;;;;2.17;0.80;;;20.00;36.20;;;;;;5016986;28;20022;-52
2023/11/25 01:53:33;;;;;;;2.90;0.85;;;20.00;36.20;;;;;;5030588;28;20056;-51
2023/11/25 01:56:00;;;;;;;1.83;0.75;;;20.00;36.20;;;;;;5033025;28;20033;-55
2023/11/25 01:58:27;;;;;;;3.72;1.00;;;20.00;36.20;;;;;;4999291;28;20165;-53
2023/11/25 02:00:53;;;;;;;2.40;0.70;;;20.00;36.20;;;;;;5024792;28;20467;-51
2023/11/25 02:03:19;;;;;;;1.52;0.77;;;20.00;36.20;;;;;;5027722;28;20029;-57
2023/11/25 02:05:45;;;;;;;2.33;1.05;;;20.00;36.20;;;;;;5041838;28;20080;-54
2023/11/25 02:08:11;;;;;;;2.78;0.93;;;20.00;36.30;;;;;;5035855;28;20051;-53
2023/11/25 02:10:39;;;;;;;2.40;0.73;;;20.00;36.30;;;;;;5034572;28;20411;-55
2023/11/25 02:13:08;;;;;;;2.28;0.75;;;20.00;36.30;;;;;;5042578;28;20021;-53
2023/11/25 02:15:40;;;;;;;2.72;0.90;;;20.00;36.30;;;;;;5025762;28;20033;-50
2023/11/25 02:18:07;;;;;;;3.20;0.90;;;20.00;36.30;;;;;;5016689;28;20025;-56
2023/11/25 02:20:40;;;;;;;1.88;0.68;;;19.90;36.20;;;;;;5040453;28;20041;-58
2023/11/25 02:23:17;;;;;;;2.38;0.80;;;19.90;36.20;;;;;;5020732;28;20037;-53
2023/11/25 02:25:49;;;;;;;2.58;1.15;;;20.00;36.30;;;;;;5021820;28;20357;-58
2023/11/25 02:28:16;;;;;;;1.90;0.73;;;20.00;36.30;;;;;;5032623;28;20104;-57
2023/11/25 02:30:42;;;;;;;2.58;0.80;;;19.90;36.20;;;;;;5040962;28;20083;-55
2023/11/25 02:33:09;;;;;;;1.63;0.73;;;19.90;36.30;;;;;;5017361;28;20029;-55
2023/11/25 02:35:35;;;;;;;1.88;0.70;;;19.90;36.30;;;;;;5039555;28;20038;-58
2023/11/25 02:38:01;;;;;;;1.92;0.70;;;19.90;36.30;;;;;;5035410;28;21010;-49
2023/11/25 02:40:27;;;;;;;2.38;0.80;;;19.90;36.30;;;;;;5013222;28;20382;-51
2023/11/25 02:42:55;;;;;;;3.70;0.90;;;19.90;36.30;;;;;;5014997;28;20399;-54
2023/11/25 02:45:24;;;;;;;2.55;0.88;;;19.90;36.30;;;;;;5010811;28;20029;-55
2023/11/25 02:47:51;;;;;;;2.90;1.02;;;19.90;36.30;;;;;;5027396;28;20029;-53
2023/11/25 02:50:18;;;;;;;1.55;0.75;;;19.90;36.30;;;;;;5012118;28;20029;-51
2023/11/25 02:52:45;;;;;;;1.80;0.70;;;19.80;36.30;;;;;;5005985;28;20036;-58
2023/11/25 02:55:11;;;;;;;2.65;1.02;;;19.90;36.40;;;;;;5009796;28;20116;-54
2023/11/25 02:57:43;;;;;;;1.85;0.80;;;19.90;36.30;;;;;;5019455;28;20060;-52
2023/11/25 03:00:36;;;;;;;1.77;0.63;;;19.90;36.30;;;;;;5029933;28;20049;-56
2023/11/25 03:03:12;;;;;;;3.50;0.93;;;19.80;36.30;;;;;;5025640;28;20120;-52
2023/11/25 03:05:45;;;;;;;2.25;0.93;;;19.80;36.30;;;;;;5023968;28;20025;-55
2023/11/25 03:08:12;;;;;;;2.67;0.93;;;19.80;36.30;;;;;;5010613;28;20017;-58
2023/11/25 03:10:43;;;;;;;2.60;0.70;;;19.80;36.40;;;;;;5019008;28;20099;-55
2023/11/25 03:13:12;;;;;;;2.88;1.00;;;19.80;36.50;;;;;;5036687;28;20029;-57
2023/11/25 03:15:38;;;;;;;2.45;1.02;;;19.80;36.40;;;;;;5010445;28;20029;-59
2023/11/25 03:18:08;;;;;;;3.13;0.77;;;19.80;36.40;;;;;;5012928;28;20034;-49
2023/11/25 03:20:36;;;;;;;2.25;0.85;;;19.80;36.40;;;;;;5035147;28;20127;-51
2023/11/25 03:23:06;;;;;;;2.75;0.95;;;19.80;36.40;;;;;;5036227;28;20036;-53
2023/11/25 03:25:33;;;;;;;3.63;1.00;;;19.80;36.40;;;;;;5014808;28;20029;-55
2023/11/25 03:28:04;;;;;;;2.40;0.80;;;19.80;36.50;;;;;;5029157;28;20029;-57
2023/11/25 03:30:31;;;;;;;2.55;0.80;;;19.80;36.50;;;;;;5025047;28;20116;-52
2023/11/25 03:32:57;;;;;;;2.95;0.93;;;19.80;36.50;;;;;;5032178;28;20449;-52
2023/11/25 03:35:25;;;;;;;1.60;0.60;;;19.70;36.70;;;;;;5026464;28;20032;-56
2023/11/25 03:37:52;;;;;;;2.85;0.80;;;19.70;36.40;;;;;;5030336;28;20046;-52
2023/11/25 03:40:17;;;;;;;2.17;0.70;;;19.80;36.50;;;;;;5011114;28;20417;-58
2023/11/25 03:42:44;;;;;;;2.15;0.85;;;19.80;36.50;;;;;;5023000;28;20064;-58
2023/11/25 03:45:13;;;;;;;4.63;1.20;;;19.80;36.50;;;;;;5028526;28;20057;-53
2023/11/25 03:47:43;;;;;;;1.05;0.63;;;19.70;36.40;;;;;;5016228;28;20039;-62
2023/11/25 03:50:13;;;;;;;1.95;0.57;;;19.80;36.50;;;;;;5024525;28;20029;-57
2023/11/25 03:52:42;;;;;;;2.70;0.88;;;19.80;36.50;;;;;;5017402;28;20052;-53
2023/11/25 03:55:09;;;;;;;4.85;1.10;;;19.70;36.40;;;;;;5029961;28;20059;-54
2023/11/25 03:57:37;;;;;;;2.92;0.90;;;19.70;36.40;;;;;;5014113;28;20033;-54
2023/11/25 04:00:14;;;;;;;1.42;0.70;;;19.70;36.40;;;;;;5010679;28;20056;-57
2023/11/25 04:02:44;;;;;;;1.60;0.68;;;19.70;36.40;;;;;;5026152;28;20049;-56
2023/11/25 04:05:11;;;;;;;2.53;0.95;;;19.70;36.40;;;;;;5033167;28;20051;-54
2023/11/25 04:07:38;;;;;;;3.25;0.93;;;19.70;36.40;;;;;;5027306;28;20031;-55
2023/11/25 04:10:12;;;;;;;2.28;0.77;;;19.70;36.40;;;;;;5031949;28;20021;-54
2023/11/25 04:12:48;;;;;;;2.20;0.70;;;19.70;36.40;;;;;;5029701;28;20415;-58
2023/11/25 04:15:16;;;;;;;2.15;0.85;;;19.70;36.30;;;;;;5030392;28;20546;-55
2023/11/25 04:17:42;;;;;;;1.98;0.70;;;19.70;36.30;;;;;;5029891;28;20088;-55
2023/11/25 04:20:24;;;;;;;3.10;0.73;;;19.70;36.30;;;;;;5031741;28;20065;-59
2023/11/25 04:22:50;;;;;;;3.30;0.77;;;19.70;36.30;;;;;;5015922;28;20037;-53
2023/11/25 04:25:16;;;;;;;3.53;0.85;;;19.70;36.30;;;;;;5027856;28;20076;-58
2023/11/25 04:27:49;;;;;;;2.53;0.80;;;19.70;36.20;;;;;;5024770;28;20479;-58
2023/11/25 04:30:18;;;;;;;1.50;0.50;;;19.70;36.20;;;;;;5031130;28;20045;-55
2023/11/25 04:32:46;;;;;;;2.05;0.70;;;19.70;36.20;;;;;;5042572;28;20051;-58
2023/11/25 04:35:13;;;;;;;2.72;1.02;;;19.70;36.20;;;;;;5015512;28;20417;-53
2023/11/25 04:37:45;;;;;;;2.25;0.80;;;19.70;36.20;;;;;;5014134;28;20099;-50
2023/11/25 04:40:12;;;;;;;3.20;0.65;;;19.70;36.20;;;;;;5049171;28;20025;-55
2023/11/25 04:42:42;;;;;;;2.38;0.63;;;19.60;36.20;;;;;;5049706;28;20044;-55
2023/11/25 04:45:16;;;;;;;2.28;0.55;;;19.70;36.20;;;;;;5032123;28;20029;-53
2023/11/25 04:47:47;;;;;;;2.00;0.80;;;19.60;36.20;;;;;;5048114;28;20432;-55
2023/11/25 04:50:14;;;;;;;1.92;0.70;;;19.60;36.20;;;;;;5057343;28;20345;-56
2023/11/25 04:52:40;;;;;;;1.85;0.80;;;19.60;36.30;;;;;;5052969;28;20044;-59
2023/11/25 04:55:14;;;;;;;2.30;0.98;;;19.60;36.20;;;;;;5038151;28;20024;-51
2023/11/25 04:57:40;;;;;;;1.65;0.70;;;19.60;36.20;;;;;;5059046;28;20025;-52
2023/11/25 05:00:10;;;;;;;1.05;0.60;;;19.60;36.30;;;;;;5061507;28;20041;-54
2023/11/25 05:02:39;;;;;;;1.52;0.63;;;19.60;36.30;;;;;;5062915;28;20352;-51
2023/11/25 05:05:06;;;;;;;1.20;0.60;;;19.60;36.30;;;;;;5056509;28;20074;-49
2023/11/25 05:07:33;;;;;;;2.50;0.70;;;19.60;36.40;;;;;;5049585;28;20021;-53
2023/11/25 05:09:59;;;;;;;2.30;0.70;;;19.60;36.40;;;;;;5052365;28;20061;-56
2023/11/25 05:12:25;;;;;;;2.10;0.90;;;19.60;36.40;;;;;;5065388;28;20029;-52
2023/11/25 05:14:51;;;;;;;1.25;0.50;;;19.60;36.50;;;;;;5052051;28;20021;-53
2023/11/25 05:17:18;;;;;;;2.88;0.98;;;19.60;36.50;;;;;;5049829;28;20036;-49
2023/11/25 05:19:44;;;;;;;2.58;0.88;;;19.60;36.50;;;;;;5056791;28;20032;-53
2023/11/25 05:22:10;;;;;;;1.48;0.52;;;19.60;36.50;;;;;;5058573;28;20091;-55
2023/11/25 05:24:36;;;;;;;1.48;0.65;;;19.60;36.50;;;;;;5056544;28;20025;-51
2023/11/25 05:27:02;;;;;;;1.73;0.57;;;19.50;36.50;;;;;;5058891;28;20025;-59
2023/11/25 05:29:28;;;;;;;1.60;0.60;;;19.60;36.50;;;;;;5058935;28;20032;-52
2023/11/25 05:31:54;;;;;;;3.13;0.93;;;19.60;36.50;;;;;;5058655;28;20094;-52
2023/11/25 05:34:20;;;;;;;2.50;0.77;;;19.50;36.50;;;;;;5055455;28;20029;-51
2023/11/25 05:36:47;;;;;;;2.70;0.80;;;19.50;36.50;;;;;;5055855;28;20036;-48
2023/11/25 05:39:13;;;;;;;2.15;0.85;;;19.50;36.50;;;;;;5036801;28;20075;-60
2023/11/25 05:41:40;;;;;;;3.22;0.75;;;19.50;36.60;;;;;;5037754;28;20456;-56
2023/11/25 05:44:10;;;;;;;2.22;0.80;;;19.50;36.60;;;;;;5040271;28;20021;-48
2023/11/25 05:46:36;;;;;;;2.08;0.65;;;19.50;36.60;;;;;;5033087;28;20029;-58
2023/11/25 05:49:04;;;;;;;2.72;0.80;;;19.50;36.60;;;;;;5035437;28;20159;-54
2023/11/25 05:51:38;;;;;;;2.97;0.95;;;19.50;36.60;;;;;;5039101;28;20041;-55
2023/11/25 05:54:05;;;;;;;2.92;0.90;;;19.50;36.50;;;;;;5031892;28;20037;-60
2023/11/25 05:56:31;;;;;;;2.50;0.70;;;19.50;36.60;;;;;;5043931;28;20103;-57
2023/11/25 05:58:57;;;;;;;2.22;0.80;;;19.50;36.60;;;;;;5041558;28;20025;-51
2023/11/25 06:01:24;;;;;;;2.30;0.85;;;19.50;36.60;;;;;;5041531;28;20052;-53
2023/11/25 06:03:53;;;;;;;3.03;1.02;;;19.50;36.60;;;;;;5037412;28;20044;-53
2023/11/25 06:06:21;;;;;;;2.13;0.77;;;19.50;36.60;;;;;;5033142;28;20029;-52
2023/11/25 06:08:50;;;;;;;1.05;0.50;;;19.50;36.60;;;;;;5031653;28;20348;-52
2023/11/25 06:11:27;;;;;;;2.30;0.90;;;19.50;36.60;;;;;;5023047;28;20036;-59
2023/11/25 06:13:56;;;;;;;1.30;0.60;;;19.50;36.60;;;;;;5035312;28;20146;-53
2023/11/25 06:16:24;;;;;;;1.20;0.50;;;19.50;36.60;;;;;;5029191;28;20074;-54
2023/11/25 06:18:50;;;;;;;1.90;0.50;;;19.50;36.60;;;;;;5028116;28;20022;-50
2023/11/25 06:21:19;;;;;;;1.73;0.60;;;19.50;36.70;;;;;;5036131;28;20143;-56
2023/11/25 06:23:45;;;;;;;1.58;0.65;;;19.50;36.70;;;;;;5043198;28;20127;-57
2023/11/25 06:26:11;;;;;;;1.90;0.50;;;19.50;36.70;;;;;;5037090;28;20435;-50
2023/11/25 06:28:41;;;;;;;0.90;0.35;;;19.50;36.70;;;;;;5030880;28;20032;-54
2023/11/25 06:31:08;;;;;;;0.90;0.50;;;19.50;36.80;;;;;;5035142;28;20060;-56
2023/11/25 06:33:34;;;;;;;1.23;0.45;;;19.50;36.90;;;;;;5035150;28;20372;-52
2023/11/25 06:36:00;;;;;;;1.40;0.50;;;19.50;36.80;;;;;;5034886;28;20033;-54
2023/11/25 06:38:26;;;;;;;2.17;0.93;;;19.50;36.90;;;;;;5029476;28;20071;-53
2023/11/25 06:40:52;;;;;;;1.15;0.40;;;19.50;36.90;;;;;;5035671;28;20067;-59
2023/11/25 06:43:18;;;;;;;0.93;0.40;;;19.40;36.80;;;;;;5040169;28;20025;-56
2023/11/25 06:45:44;;;;;;;1.00;0.40;;;19.50;36.80;;;;;;5037449;28;20022;-52
2023/11/25 06:48:13;;;;;;;1.83;0.43;;;19.40;36.80;;;;;;5033912;28;20034;-52
2023/11/25 06:50:38;;;;;;;2.05;0.47;;;19.40;36.80;;;;;;5021041;28;20025;-54
2023/11/25 06:53:04;;;;;;;0.98;0.35;;;19.50;36.90;;;;;;5033880;28;20352;-54
2023/11/25 06:55:32;;;;;;;1.83;0.50;;;19.40;36.80;;;;;;5037263;28;20507;-51
2023/11/25 06:57:58;;;;;;;1.45;0.45;;;19.40;36.80;;;;;;5032305;28;20053;-54
2023/11/25 07:00:24;;;;;;;1.30;0.47;;;19.40;36.80;;;;;;5013019;28;20088;-54
2023/11/25 07:02:50;;;;;;;1.27;0.40;;;19.40;36.90;;;;;;5036647;28;20028;-52
2023/11/25 07:05:15;;;;;;;1.98;0.68;;;19.40;36.90;;;;;;5034523;28;20026;-56
2023/11/25 07:07:42;;;;;;;1.13;0.38;;;19.40;36.90;;;;;;5012173;28;20040;-59
2023/11/25 07:10:13;;;;;;;1.58;0.50;;;19.40;36.90;;;;;;5031542;28;20037;-53
2023/11/25 07:12:40;;;;;;;1.00;0.40;;;19.40;36.90;;;;;;5033444;28;20037;-50
2023/11/25 07:15:07;;;;;;;1.27;0.32;;;19.40;36.90;;;;;;5030532;28;20116;-55
2023/11/25 07:17:36;;;;;;;0.98;0.30;;;19.40;36.90;;;;;;5029116;28;20022;-54
2023/11/25 07:20:02;;;;;;;1.10;0.30;;;19.40;36.90;;;;;;5022179;28;20045;-54
2023/11/25 07:22:28;;;;;;;1.00;0.40;;;19.40;37.00;;;;;;5025802;28;20108;-56
2023/11/25 07:24:54;;;;;;;1.17;0.30;;;19.40;37.00;;;;;;5032280;28;20033;-54
2023/11/25 07:27:23;;;;;;;1.15;0.28;;;19.40;37.00;;;;;;5031160;28;20048;-58
2023/11/25 07:29:49;;;;;;;1.05;0.30;;;19.40;37.00;;;;;;5027745;28;20583;-51
2023/11/25 07:32:15;;;;;;;0.85;0.20;;;19.40;37.00;;;;;;5025441;28;20380;-54
2023/11/25 07:34:41;;;;;;;1.10;0.38;;;19.40;37.00;;;;;;5025286;28;20026;-56
2023/11/25 07:37:07;;;;;;;0.55;0.20;;;19.40;37.00;;;;;;5031153;28;20114;-49
2023/11/25 07:39:34;;;;;;;1.15;0.40;;;19.40;37.00;;;;;;5006870;28;20496;-54
2023/11/25 07:42:01;;;;;;;0.75;0.30;;;19.40;37.00;;;;;;5033020;28;20025;-58
2023/11/25 07:44:30;;;;;;;1.70;0.50;;;19.40;37.00;;;;;;5036033;28;20033;-48
2023/11/25 07:46:57;;;;;;;0.85;0.30;;;19.40;37.00;;;;;;5034125;28;20072;-55
2023/11/25 07:49:23;;;;;;;1.70;0.35;;;19.40;37.00;;;;;;5032285;28;20025;-54
2023/11/25 07:51:49;;;;;;;1.15;0.40;;;19.40;37.20;;;;;;5010617;28;20068;-54
2023/11/25 07:54:16;;;;;;;1.90;0.40;;;19.40;37.20;;;;;;5023482;28;20101;-54
2023/11/25 07:56:42;;;;;;;0.75;0.40;;;19.40;37.20;;;;;;5021867;28;20065;-55
2023/11/25 07:59:09;;;;;;;1.40;0.45;;;19.40;37.20;;;;;;5008303;28;20072;-51
2023/11/25 08:01:36;;;;;;;1.00;0.60;;;19.40;37.30;;;;;;5021599;28;20373;-57
2023/11/25 08:04:02;;;;;;;1.38;0.50;;;19.40;37.40;;;;;;5030313;28;20029;-57
2023/11/25 08:06:28;;;;;;;1.17;0.40;;;19.50;37.60;;;;;;5036989;28;21736;-55
2023/11/25 08:08:54;;;;;;;1.55;0.57;;;19.50;37.70;;;;;;5041737;28;20054;-55
2023/11/25 08:11:27;;;;;;;1.15;0.40;;;19.50;37.70;;;;;;5005057;28;20344;-58
2023/11/25 08:13:53;;;;;;;2.03;0.50;;;19.60;37.80;;;;;;5004404;28;20030;-60
2023/11/25 08:16:19;;;;;;;1.55;0.57;;;19.60;37.80;;;;;;5023271;28;20078;-54
2023/11/25 08:18:45;;;;;;;1.63;0.47;;;19.70;37.90;;;;;;5023437;28;20025;-56
2023/11/25 08:21:14;;;;;;;2.70;0.50;;;19.70;37.90;;;;;;5021097;28;20033;-55
2023/11/25 08:23:41;;;;;;;1.35;0.40;;;19.80;37.90;;;;;;5025469;28;20135;-57
2023/11/25 08:26:20;;;;;;;1.48;0.55;;;19.90;37.90;;;;;;5027972;28;20032;-53
2023/11/25 08:28:50;;;;;;;0.93;0.40;;;20.00;37.90;;;;;;5026453;28;20026;-55
2023/11/25 08:31:17;;;;;;;2.00;0.65;;;20.00;38.50;;;;;;5032403;28;20409;-50
2023/11/25 08:33:43;;;;;;;2.53;0.47;;;20.10;37.90;;;;;;5029322;28;20111;-58
2023/11/25 08:36:10;;;;;;;1.92;0.70;;;20.20;38.00;;;;;;5027729;28;20029;-58
2023/11/25 08:38:37;;;;;;;1.85;0.50;;;20.30;38.10;;;;;;5024699;28;20527;-54
2023/11/25 08:41:06;;;;;;;1.05;0.50;;;20.30;38.10;;;;;;5029045;28;20411;-50
2023/11/25 08:43:39;;;;;;;1.02;0.35;;;20.40;38.20;;;;;;5023421;28;20072;-56
2023/11/25 08:46:05;;;;;;;2.15;0.50;;;20.40;38.20;;;;;;5021513;28;20048;-54
2023/11/25 08:48:31;;;;;;;1.48;0.50;;;20.50;38.10;;;;;;5015143;28;20041;-55
2023/11/25 08:50:57;;;;;;;1.00;0.40;;;20.60;38.20;;;;;;5012978;28;20389;-51
2023/11/25 08:53:24;;;;;;;1.42;0.38;;;20.60;38.10;;;;;;5032501;28;20452;-52
2023/11/25 08:55:50;;;;;;;1.20;0.50;;;20.70;38.10;;;;;;5011654;28;20025;-50
2023/11/25 08:58:16;;;;;;;0.93;0.40;;;20.70;38.10;;;;;;5020573;28;20061;-56
2023/11/25 09:00:43;;;;;;;0.88;0.22;;;20.80;38.00;;;;;;5025663;28;20076;-55
2023/11/25 09:03:10;;;;;;;1.42;0.40;;;20.80;37.90;;;;;;5030576;28;20546;-55
2023/11/25 09:05:40;;;;;;;1.38;0.55;;;20.90;37.90;;;;;;5029784;28;20091;-55
2023/11/25 09:08:09;;;;;;;1.13;0.50;;;20.90;37.80;;;;;;5020093;28;20041;-51
2023/11/25 09:10:35;;;;;;;1.13;0.40;;;21.00;37.80;;;;;;5020171;28;20382;-52
2023/11/25 09:13:04;;;;;;;0.98;0.30;;;21.00;37.70;;;;;;5025312;28;20049;-50
2023/11/25 09:15:30;;;;;;;1.10;0.30;;;21.10;37.70;;;;;;5029979;28;20021;-55
2023/11/25 09:17:56;;;;;;;0.68;0.38;;;21.10;37.50;;;;;;5031346;28;20033;-52
2023/11/25 09:20:22;;;;;;;0.95;0.28;;;21.10;37.50;;;;;;5045148;28;20083;-52
2023/11/25 09:22:48;;;;;;;0.90;0.30;;;21.20;37.40;;;;;;5024933;28;20044;-55
2023/11/25 09:25:14;;;;;;;1.40;0.38;;;21.20;37.40;;;;;;5046958;28;20071;-57
2023/11/25 09:27:41;;;;;;;0.73;0.40;;;21.20;37.30;;;;;;5039117;28;20392;-56
2023/11/25 09:30:11;;;;;;;1.30;0.40;;;21.20;37.20;;;;;;5017403;28;20111;-51
2023/11/25 09:32:46;;;;;;;1.08;0.30;;;21.30;37.10;;;;;;5008682;28;20064;-55
2023/11/25 09:35:12;;;;;;;1.08;0.30;;;21.30;37.10;;;;;;5023733;28;20025;-54
2023/11/25 09:37:43;;;;;;;1.42;0.50;;;21.30;37.10;;;;;;5005231;28;20049;-56
2023/11/25 09:40:17;;;;;;;1.05;0.38;;;21.30;37.10;;;;;;5019747;28;20385;-57
2023/11/25 09:42:43;;;;;;;;;;;21.30;37.00;;;;;;5022295;28;20029;-55
2023/11/25 09:45:14;;;;;;;1.77;0.50;;;21.30;37.10;;;;;;5038146;28;19950;-53
2023/11/25 09:47:45;;;;;;;0.95;0.40;;;21.30;37.00;;;;;;5033229;28;20087;-58
2023/11/25 09:50:13;;;;;;;0.98;0.30;;;21.30;37.00;;;;;;5029516;28;20041;-55
2023/11/25 09:52:59;;;;;;;1.10;0.52;;;21.30;36.90;;;;;;5017501;28;20033;-57
2023/11/25 09:55:30;;;;;;;1.77;0.40;;;21.30;36.80;;;;;;5027218;28;20029;-57
2023/11/25 09:58:06;;;;;;;0.40;0.20;;;21.20;36.80;;;;;;5029042;28;20548;-52
2023/11/25 10:00:33;;;;;;;2.25;0.50;;;21.20;36.70;;;;;;5032237;28;20052;-54
2023/11/25 10:03:01;;;;;;;0.90;0.30;;;21.30;36.80;;;;;;5012734;28;20045;-55
2023/11/25 10:05:27;;;;;;;1.50;0.40;;;21.20;36.80;;;;;;5029089;28;20025;-53
2023/11/25 10:07:53;;;;;;;1.35;0.57;;;21.20;36.70;;;;;;5021453;28;20453;-57
2023/11/25 10:10:23;;;;;;;1.63;0.50;;;21.20;36.70;;;;;;5031004;28;20061;-58
2023/11/25 10:12:50;;;;;;;0.82;0.30;;;21.20;36.70;;;;;;5027965;28;20080;-55
2023/11/25 10:15:16;;;;;;;1.48;0.40;;;21.20;36.70;;;;;;5031372;28;20034;-60
2023/11/25 10:17:45;;;;;;;3.05;0.77;;;21.20;36.70;;;;;;5010377;28;20044;-56
2023/11/25 10:20:18;;;;;;;1.27;0.50;;;21.20;36.60;;;;;;5026721;28;20049;-58
2023/11/25 10:22:49;;;;;;;1.02;0.30;;;21.20;36.70;;;;;;5029998;28;20512;-57
2023/11/25 10:25:22;;;;;;;0.95;0.30;;;21.20;36.70;;;;;;5034811;28;20463;-54
2023/11/25 10:27:54;;;;;;;2.05;0.50;;;21.10;36.60;;;;;;5032323;28;20086;-52
2023/11/25 10:30:21;;;;;;;1.30;0.50;;;21.20;36.70;;;;;;5033751;28;20033;-55
2023/11/25 10:32:49;;;;;;;1.17;0.45;;;21.10;36.70;;;;;;5013579;28;20083;-56
2023/11/25 10:35:15;;;;;;;0.90;0.50;;;21.10;36.70;;;;;;5033757;28;20485;-60
2023/11/25 10:37:41;;;;;;;1.52;0.50;;;21.10;36.70;;;;;;5032305;28;20065;-56
2023/11/25 10:40:11;;;;;;;1.65;0.60;;;21.20;36.70;;;;;;5033463;28;20072;-54
2023/11/25 10:42:46;;;;;;;2.00;0.70;;;21.10;36.70;;;;;;5033133;28;20033;-56
2023/11/25 10:45:15;;;;;;;1.45;0.50;;;21.10;36.70;;;;;;5014825;28;20520;-57
2023/11/25 10:47:42;;;;;;;1.67;0.40;;;21.10;36.70;;;;;;5032056;28;20340;-57
2023/11/25 10:50:09;;;;;;;1.80;0.70;;;21.10;36.80;;;;;;5034203;28;20048;-56
2023/11/25 10:52:38;;;;;;;1.55;0.55;;;21.10;36.80;;;;;;5034451;28;20029;-58
2023/11/25 10:55:08;;;;;;;2.65;0.65;;;21.20;36.80;;;;;;5034192;28;20480;-58
2023/11/25 10:57:35;;;;;;;1.98;0.60;;;21.20;36.80;;;;;;5030505;28;20437;-58
2023/11/25 11:00:10;;;;;;;1.90;0.50;;;21.10;36.90;;;;;;5033159;28;20037;-56
2023/11/25 11:02:53;;;;;;;1.33;0.75;;;21.20;37.20;;;;;;5030782;28;21289;-56
2023/11/25 11:05:42;;;;;;;1.77;0.70;;;21.30;37.50;;;;;;5026535;28;20456;-58
2023/11/25 11:08:16;;;;;;;2.58;0.65;;;21.30;37.50;;;;;;5023526;28;20088;-56
2023/11/25 11:11:00;;;;;;;2.10;0.65;;;21.30;37.50;;;;;;5030217;28;20036;-55
2023/11/25 11:13:36;;;;;;;2.15;0.80;;;21.30;37.50;;;;;;5029368;28;20028;-57
2023/11/25 11:16:10;;;;;;;1.52;0.75;;;21.30;37.40;;;;;;5031846;28;20043;-60
2023/11/25 11:18:41;;;;;;;1.38;0.50;;;21.30;37.40;;;;;;5022703;28;20025;-60
2023/11/25 11:21:08;;;;;;;1.70;0.65;;;21.30;37.40;;;;;;5031829;28;20045;-62
2023/11/25 11:23:37;;;;;;;1.10;0.47;;;21.30;37.40;;;;;;5033786;28;20032;-60
2023/11/25 11:26:14;;;;;;;1.52;0.60;;;21.30;37.40;;;;;;5015621;28;20025;-57
2023/11/25 11:29:06;;;;;;;1.70;0.60;;;21.30;37.40;;;;;;5029222;28;20013;-58
2023/11/25 11:31:56;;;;;;;2.35;0.47;;;21.30;37.30;;;;;;5014449;28;20047;-61
2023/11/25 11:34:33;;;;;;;2.42;0.70;;;21.30;37.40;;;;;;5028455;28;20029;-58
2023/11/25 11:37:00;;;;;;;3.45;0.50;;;21.30;37.30;;;;;;5029975;28;20029;-58
2023/11/25 11:39:42;;;;;;;1.42;0.50;;;21.30;37.30;;;;;;5033330;28;20029;-55
2023/11/25 11:42:26;;;;;;;2.13;0.60;;;21.30;37.30;;;;;;5030506;28;20049;-59
2023/11/25 11:45:09;;;;;;;1.88;0.57;;;21.30;37.30;;;;;;5030948;28;20060;-57
2023/11/25 11:47:36;;;;;;;1.92;0.50;;;21.30;37.20;;;;;;5029286;28;20342;-59
2023/11/25 11:50:08;;;;;;;1.90;0.68;;;21.30;37.20;;;;;;5032208;28;20021;-57
2023/11/25 11:52:34;;;;;;;1.33;0.57;;;21.20;37.80;;;;;;5010708;28;20504;-57
2023/11/25 11:55:36;;;;;;;2.13;0.55;;;21.30;37.20;;;;;;5026755;28;20065;-58
2023/11/25 11:58:09;;;;;;;2.10;0.65;;;21.30;37.20;;;;;;4995565;28;20057;-59
2023/11/25 12:01:02;;;;;;;3.10;0.70;;;21.30;37.30;;;;;;5021113;28;20465;-56
2023/11/25 12:03:30;;;;;;;1.20;0.50;;;21.20;37.20;;;;;;5025371;28;20056;-59
2023/11/25 12:05:56;;;;;;;2.53;0.73;;;21.30;37.30;;;;;;5016312;28;20116;-56
2023/11/25 12:08:23;;;;;;;1.00;0.50;;;21.20;37.30;;;;;;5035525;28;20499;-58
2023/11/25 12:10:51;;;;;;;1.25;0.40;;;21.30;37.40;;;;;;5030488;28;20041;-57
2023/11/25 12:13:37;;;;;;;1.52;0.60;;;21.30;37.40;;;;;;5029981;28;20365;-59
2023/11/25 12:16:03;;;;;;;1.40;0.65;;;21.20;37.40;;;;;;5010188;28;21658;-60
2023/11/25 12:18:34;;;;;;;2.35;0.50;;;21.30;37.60;;;;;;5012517;28;20322;-57
2023/11/25 12:21:02;;;;;;;0.77;0.43;;;21.30;37.70;;;;;;5028945;28;20452;-61
2023/11/25 12:23:29;;;;;;;1.77;0.60;;;21.30;37.60;;;;;;5031985;28;20116;-61
2023/11/25 12:25:58;;;;;;;1.85;0.90;;;21.30;37.60;;;;;;5029732;28;20087;-60
2023/11/25 12:28:24;;;;;;;1.58;0.70;;;21.20;37.60;;;;;;5027242;28;20037;-58
2023/11/25 12:30:53;;;;;;;1.38;0.52;;;21.20;37.60;;;;;;5030106;28;20078;-59
2023/11/25 12:33:20;;;;;;;1.38;0.50;;;21.20;37.60;;;;;;5025236;28;20029;-62
2023/11/25 12:35:47;;;;;;;1.98;0.70;;;21.20;37.60;;;;;;5022843;28;20022;-61
2023/11/25 12:38:15;;;;;;;1.77;0.55;;;21.20;37.60;;;;;;5017662;28;20041;-62
2023/11/25 12:40:43;;;;;;;1.02;0.47;;;21.20;37.50;;;;;;5052349;28;20036;-62
2023/11/25 12:43:12;;;;;;;11.73;0.70;;;21.20;37.50;;;;;;5052194;28;20436;-58
2023/11/25 12:45:48;;;;;;;1.73;0.60;;;21.20;37.60;;;;;;5042828;28;20061;-59
2023/11/25 12:48:28;;;;;;;1.77;0.40;;;21.20;37.80;;;;;;5048981;28;20686;-57
2023/11/25 12:51:06;;;;;;;3.92;0.70;;;21.20;37.90;;;;;;5043651;28;20063;-58
2023/11/25 12:53:36;;;;;;;2.70;0.80;;;21.20;38.00;;;;;;5043279;28;20049;-63
2023/11/25 12:56:03;;;;;;;3.17;0.63;;;21.20;38.10;;;;;;5047636;28;20112;-57